sensor_id;sensor_type;location;lat;lon;timestamp;pressure;altitude;pressure_sealevel;temperature;humidity
62978;BME280;49073;42.352;23.808;2023-06-10T00:00:48;94304.28;;;15.88;100.00
62978;BME280;49073;42.352;23.808;2023-06-10T00:03:52;94305.50;;;15.76;100.00
62978;BME280;49073;42.352;23.808;2023-06-10T00:06:53;94307.13;;;15.66;100.00
62978;BME280;49073;42.352;23.808;2023-06-10T00:09:54;94309.25;;;15.90;100.00
62978;BME280;49073;42.352;23.808;2023-06-10T00:12:55;94303.88;;;15.90;100.00
62978;BME280;49073;42.352;23.808;2023-06-10T00:15:57;94302.88;;;15.69;100.00
62978;BME280;49073;42.352;23.808;2023-06-10T00:19:00;94300.59;;;15.67;100.00
62978;BME280;49073;42.352;23.808;2023-06-10T00:22:01;94303.28;;;15.67;100.00
62978;BME280;49073;42.352;23.808;2023-06-10T00:25:01;94302.97;;;15.54;100.00
62978;BME280;49073;42.352;23.808;2023-06-10T00:28:04;94300.25;;;15.58;100.00
62978;BME280;49073;42.352;23.808;2023-06-10T00:31:05;94310.13;;;15.76;100.00
62978;BME280;49073;42.352;23.808;2023-06-10T00:34:06;94295.06;;;15.89;100.00
62978;BME280;49073;42.352;23.808;2023-06-10T00:37:07;94295.78;;;15.93;100.00
62978;BME280;49073;42.352;23.808;2023-06-10T00:40:08;94299.16;;;16.05;100.00
62978;BME280;49073;42.352;23.808;2023-06-10T00:43:09;94299.16;;;16.05;100.00
62978;BME280;49073;42.352;23.808;2023-06-10T00:46:11;94300.69;;;16.06;98.92
62978;BME280;49073;42.352;23.808;2023-06-10T00:49:12;94298.03;;;16.02;100.00
62978;BME280;49073;42.352;23.808;2023-06-10T00:52:14;94296.44;;;16.08;100.00
62978;BME280;49073;42.352;23.808;2023-06-10T00:55:17;94294.94;;;16.04;100.00
62978;BME280;49073;42.352;23.808;2023-06-10T00:58:18;94288.47;;;15.97;100.00
62978;BME280;49073;42.352;23.808;2023-06-10T01:01:19;94286.47;;;16.05;100.00
62978;BME280;49073;42.352;23.808;2023-06-10T01:04:20;94292.34;;;15.93;100.00
62978;BME280;49073;42.352;23.808;2023-06-10T01:07:29;94292.09;;;16.18;100.00
62978;BME280;49073;42.352;23.808;2023-06-10T01:10:39;94306.75;;;16.13;100.00
62978;BME280;49073;42.352;23.808;2023-06-10T01:13:41;94304.38;;;16.19;100.00
62978;BME280;49073;42.352;23.808;2023-06-10T01:16:43;94307.56;;;16.10;100.00
62978;BME280;49073;42.352;23.808;2023-06-10T01:19:53;94309.56;;;15.99;100.00
62978;BME280;49073;42.352;23.808;2023-06-10T01:22:55;94310.00;;;15.94;100.00
62978;BME280;49073;42.352;23.808;2023-06-10T01:26:07;94306.91;;;15.95;100.00
62978;BME280;49073;42.352;23.808;2023-06-10T01:29:21;94305.59;;;16.14;100.00
62978;BME280;49073;42.352;23.808;2023-06-10T01:32:40;94300.75;;;15.98;100.00
62978;BME280;49073;42.352;23.808;2023-06-10T01:35:43;94301.03;;;16.08;100.00
62978;BME280;49073;42.352;23.808;2023-06-10T01:38:46;94299.00;;;16.23;100.00
62978;BME280;49073;42.352;23.808;2023-06-10T01:41:48;94303.63;;;16.22;100.00
62978;BME280;49073;42.352;23.808;2023-06-10T01:44:49;94314.38;;;16.22;100.00
62978;BME280;49073;42.352;23.808;2023-06-10T01:47:49;94306.03;;;16.06;100.00
62978;BME280;49073;42.352;23.808;2023-06-10T01:50:50;94306.41;;;16.11;100.00
62978;BME280;49073;42.352;23.808;2023-06-10T01:53:50;94315.22;;;16.12;100.00
62978;BME280;49073;42.352;23.808;2023-06-10T01:56:51;94315.53;;;16.21;100.00
62978;BME280;49073;42.352;23.808;2023-06-10T01:59:51;94305.94;;;16.20;100.00
62978;BME280;49073;42.352;23.808;2023-06-10T02:02:52;94312.13;;;16.13;100.00
62978;BME280;49073;42.352;23.808;2023-06-10T02:05:52;94313.00;;;16.03;100.00
62978;BME280;49073;42.352;23.808;2023-06-10T02:08:53;94313.84;;;15.93;100.00
62978;BME280;49073;42.352;23.808;2023-06-10T02:11:55;94323.44;;;15.86;100.00
62978;BME280;49073;42.352;23.808;2023-06-10T02:14:56;94324.59;;;15.85;100.00
62978;BME280;49073;42.352;23.808;2023-06-10T02:17:56;94324.06;;;16.09;100.00
62978;BME280;49073;42.352;23.808;2023-06-10T02:20:58;94329.06;;;16.10;100.00
62978;BME280;49073;42.352;23.808;2023-06-10T02:23:58;94323.41;;;15.97;100.00
62978;BME280;49073;42.352;23.808;2023-06-10T02:26:59;94318.47;;;15.89;100.00
62978;BME280;49073;42.352;23.808;2023-06-10T02:30:00;94318.50;;;15.81;100.00
62978;BME280;49073;42.352;23.808;2023-06-10T02:33:01;94315.38;;;15.94;100.00
62978;BME280;49073;42.352;23.808;2023-06-10T02:36:02;94313.06;;;15.96;100.00
62978;BME280;49073;42.352;23.808;2023-06-10T02:39:04;94322.97;;;16.03;100.00
62978;BME280;49073;42.352;23.808;2023-06-10T02:42:05;94318.81;;;15.94;100.00
62978;BME280;49073;42.352;23.808;2023-06-10T02:45:07;94311.34;;;16.13;100.00
62978;BME280;49073;42.352;23.808;2023-06-10T02:48:08;94312.25;;;15.99;100.00
62978;BME280;49073;42.352;23.808;2023-06-10T02:51:08;94310.69;;;16.05;100.00
62978;BME280;49073;42.352;23.808;2023-06-10T02:54:09;94320.31;;;15.99;100.00
62978;BME280;49073;42.352;23.808;2023-06-10T02:57:10;94321.44;;;16.05;100.00
62978;BME280;49073;42.352;23.808;2023-06-10T03:00:11;94315.84;;;16.27;100.00
62978;BME280;49073;42.352;23.808;2023-06-10T03:03:11;94317.34;;;16.32;100.00
62978;BME280;49073;42.352;23.808;2023-06-10T03:06:13;94310.03;;;16.32;100.00
62978;BME280;49073;42.352;23.808;2023-06-10T03:09:14;94315.41;;;16.32;100.00
62978;BME280;49073;42.352;23.808;2023-06-10T03:12:15;94311.25;;;16.27;100.00
62978;BME280;49073;42.352;23.808;2023-06-10T03:15:16;94304.72;;;16.28;100.00
62978;BME280;49073;42.352;23.808;2023-06-10T03:18:17;94308.94;;;16.26;100.00
62978;BME280;49073;42.352;23.808;2023-06-10T03:21:17;94309.31;;;16.28;100.00
62978;BME280;49073;42.352;23.808;2023-06-10T03:24:18;94305.88;;;16.24;100.00
62978;BME280;49073;42.352;23.808;2023-06-10T03:27:18;94304.44;;;16.16;100.00
62978;BME280;49073;42.352;23.808;2023-06-10T03:30:19;94306.81;;;16.06;100.00
62978;BME280;49073;42.352;23.808;2023-06-10T03:33:20;94302.19;;;16.10;100.00
62978;BME280;49073;42.352;23.808;2023-06-10T03:36:21;94306.31;;;16.22;100.00
62978;BME280;49073;42.352;23.808;2023-06-10T03:39:22;94300.06;;;16.29;100.00
62978;BME280;49073;42.352;23.808;2023-06-10T03:42:23;94301.16;;;16.35;100.00
62978;BME280;49073;42.352;23.808;2023-06-10T03:45:24;94297.59;;;16.46;100.00
62978;BME280;49073;42.352;23.808;2023-06-10T03:48:24;94304.94;;;16.41;100.00
62978;BME280;49073;42.352;23.808;2023-06-10T03:51:26;94300.06;;;16.33;100.00
62978;BME280;49073;42.352;23.808;2023-06-10T03:54:26;94300.84;;;16.29;100.00
62978;BME280;49073;42.352;23.808;2023-06-10T03:57:27;94305.44;;;16.33;100.00
62978;BME280;49073;42.352;23.808;2023-06-10T04:00:28;94296.44;;;16.47;100.00
62978;BME280;49073;42.352;23.808;2023-06-10T04:03:29;94303.41;;;16.40;100.00
62978;BME280;49073;42.352;23.808;2023-06-10T04:06:29;94296.50;;;16.39;100.00
62978;BME280;49073;42.352;23.808;2023-06-10T04:09:30;94294.59;;;16.40;100.00
62978;BME280;49073;42.352;23.808;2023-06-10T04:12:31;94300.44;;;16.31;100.00
62978;BME280;49073;42.352;23.808;2023-06-10T04:15:32;94298.69;;;16.13;100.00
62978;BME280;49073;42.352;23.808;2023-06-10T04:18:33;94308.66;;;16.13;100.00
62978;BME280;49073;42.352;23.808;2023-06-10T04:21:34;94306.03;;;16.09;100.00
62978;BME280;49073;42.352;23.808;2023-06-10T04:24:34;94307.78;;;16.27;100.00
62978;BME280;49073;42.352;23.808;2023-06-10T04:27:35;94303.53;;;16.29;100.00
62978;BME280;49073;42.352;23.808;2023-06-10T04:30:36;94307.97;;;16.47;100.00
62978;BME280;49073;42.352;23.808;2023-06-10T04:33:36;94306.34;;;16.57;100.00
62978;BME280;49073;42.352;23.808;2023-06-10T04:36:37;94308.09;;;16.71;100.00
62978;BME280;49073;42.352;23.808;2023-06-10T04:39:38;94312.25;;;16.79;100.00
62978;BME280;49073;42.352;23.808;2023-06-10T04:42:39;94312.25;;;16.79;100.00
62978;BME280;49073;42.352;23.808;2023-06-10T04:45:40;94308.88;;;16.71;100.00
62978;BME280;49073;42.352;23.808;2023-06-10T04:48:40;94309.81;;;16.89;100.00
62978;BME280;49073;42.352;23.808;2023-06-10T04:51:42;94312.72;;;17.05;100.00
62978;BME280;49073;42.352;23.808;2023-06-10T04:54:43;94312.75;;;17.33;100.00
62978;BME280;49073;42.352;23.808;2023-06-10T04:57:44;94298.94;;;17.30;100.00
62978;BME280;49073;42.352;23.808;2023-06-10T05:00:44;94306.31;;;17.54;100.00
62978;BME280;49073;42.352;23.808;2023-06-10T05:03:45;94302.22;;;17.69;100.00
62978;BME280;49073;42.352;23.808;2023-06-10T05:06:45;94292.94;;;17.74;100.00
62978;BME280;49073;42.352;23.808;2023-06-10T05:09:46;94302.41;;;17.82;100.00
62978;BME280;49073;42.352;23.808;2023-06-10T05:12:46;94298.56;;;17.83;100.00
62978;BME280;49073;42.352;23.808;2023-06-10T05:15:47;94300.78;;;17.88;99.65
62978;BME280;49073;42.352;23.808;2023-06-10T05:18:48;94300.78;;;17.88;99.29
62978;BME280;49073;42.352;23.808;2023-06-10T05:21:51;94296.44;;;17.95;97.92
62978;BME280;49073;42.352;23.808;2023-06-10T05:24:52;94295.50;;;17.81;99.69
62978;BME280;49073;42.352;23.808;2023-06-10T05:27:52;94300.63;;;17.99;99.50
62978;BME280;49073;42.352;23.808;2023-06-10T05:30:53;94298.66;;;18.03;100.00
62978;BME280;49073;42.352;23.808;2023-06-10T05:33:54;94310.63;;;17.99;99.66
62978;BME280;49073;42.352;23.808;2023-06-10T05:36:54;94307.56;;;18.00;100.00
62978;BME280;49073;42.352;23.808;2023-06-10T05:39:55;94307.13;;;18.02;100.00
62978;BME280;49073;42.352;23.808;2023-06-10T05:42:55;94306.00;;;17.99;100.00
62978;BME280;49073;42.352;23.808;2023-06-10T05:45:56;94304.88;;;18.00;100.00
62978;BME280;49073;42.352;23.808;2023-06-10T05:48:56;94307.00;;;18.09;100.00
62978;BME280;49073;42.352;23.808;2023-06-10T05:51:57;94301.78;;;18.22;100.00
62978;BME280;49073;42.352;23.808;2023-06-10T05:54:59;94299.28;;;18.35;100.00
62978;BME280;49073;42.352;23.808;2023-06-10T05:58:00;94302.09;;;18.48;100.00
62978;BME280;49073;42.352;23.808;2023-06-10T06:01:02;94297.66;;;18.38;98.77
62978;BME280;49073;42.352;23.808;2023-06-10T06:04:03;94303.06;;;18.38;100.00
62978;BME280;49073;42.352;23.808;2023-06-10T06:07:03;94304.31;;;18.33;100.00
62978;BME280;49073;42.352;23.808;2023-06-10T06:10:05;94307.16;;;18.46;100.00
62978;BME280;49073;42.352;23.808;2023-06-10T06:13:05;94307.97;;;18.43;99.55
62978;BME280;49073;42.352;23.808;2023-06-10T06:16:07;94310.28;;;18.44;98.32
62978;BME280;49073;42.352;23.808;2023-06-10T06:19:08;94312.19;;;18.44;98.60
62978;BME280;49073;42.352;23.808;2023-06-10T06:22:11;94305.09;;;18.54;98.99
62978;BME280;49073;42.352;23.808;2023-06-10T06:25:11;94305.09;;;18.54;98.33
62978;BME280;49073;42.352;23.808;2023-06-10T06:28:12;94305.72;;;18.41;97.44
62978;BME280;49073;42.352;23.808;2023-06-10T06:31:13;94311.34;;;18.71;99.42
62978;BME280;49073;42.352;23.808;2023-06-10T06:34:13;94304.41;;;18.70;98.59
62978;BME280;49073;42.352;23.808;2023-06-10T06:37:14;94305.31;;;18.83;98.84
62978;BME280;49073;42.352;23.808;2023-06-10T06:40:15;94298.41;;;19.02;89.23
62978;BME280;49073;42.352;23.808;2023-06-10T06:43:16;94302.75;;;19.16;86.65
62978;BME280;49073;42.352;23.808;2023-06-10T06:46:17;94305.00;;;19.01;89.75
62978;BME280;49073;42.352;23.808;2023-06-10T06:49:18;94298.69;;;18.88;93.22
62978;BME280;49073;42.352;23.808;2023-06-10T06:52:18;94310.06;;;18.75;93.19
62978;BME280;49073;42.352;23.808;2023-06-10T06:55:19;94306.88;;;18.81;94.93
62978;BME280;49073;42.352;23.808;2023-06-10T06:58:20;94303.59;;;18.93;92.64
62978;BME280;49073;42.352;23.808;2023-06-10T07:01:20;94300.34;;;19.02;91.81
62978;BME280;49073;42.352;23.808;2023-06-10T07:04:21;94301.31;;;19.12;91.82
62978;BME280;49073;42.352;23.808;2023-06-10T07:07:25;94296.59;;;19.16;91.51
62978;BME280;49073;42.352;23.808;2023-06-10T07:10:26;94302.00;;;19.32;87.99
62978;BME280;49073;42.352;23.808;2023-06-10T07:13:26;94296.69;;;19.29;83.48
62978;BME280;49073;42.352;23.808;2023-06-10T07:16:27;94294.28;;;19.14;82.01
62978;BME280;49073;42.352;23.808;2023-06-10T07:19:27;94292.69;;;18.97;85.83
62978;BME280;49073;42.352;23.808;2023-06-10T07:22:28;94299.41;;;18.88;88.81
62978;BME280;49073;42.352;23.808;2023-06-10T07:25:29;94298.03;;;18.80;89.37
62978;BME280;49073;42.352;23.808;2023-06-10T07:28:29;94304.28;;;18.77;90.65
62978;BME280;49073;42.352;23.808;2023-06-10T07:31:30;94302.91;;;18.69;87.61
62978;BME280;49073;42.352;23.808;2023-06-10T07:34:30;94303.63;;;18.69;84.58
62978;BME280;49073;42.352;23.808;2023-06-10T07:37:31;94303.44;;;18.60;81.37
62978;BME280;49073;42.352;23.808;2023-06-10T07:40:32;94303.09;;;18.58;81.71
62978;BME280;49073;42.352;23.808;2023-06-10T07:43:32;94300.66;;;18.43;79.04
62978;BME280;49073;42.352;23.808;2023-06-10T07:46:33;94315.47;;;18.55;79.42
62978;BME280;49073;42.352;23.808;2023-06-10T07:49:34;94312.75;;;18.55;78.53
62978;BME280;49073;42.352;23.808;2023-06-10T07:52:34;94308.09;;;18.59;79.12
62978;BME280;49073;42.352;23.808;2023-06-10T07:55:35;94321.34;;;18.70;79.62
62978;BME280;49073;42.352;23.808;2023-06-10T07:58:35;94318.53;;;18.78;81.81
62978;BME280;49073;42.352;23.808;2023-06-10T08:01:36;94322.97;;;18.88;80.39
62978;BME280;49073;42.352;23.808;2023-06-10T08:04:40;94327.09;;;18.93;79.71
62978;BME280;49073;42.352;23.808;2023-06-10T08:07:40;94329.19;;;19.05;81.66
62978;BME280;49073;42.352;23.808;2023-06-10T08:10:41;94323.81;;;19.05;82.89
62978;BME280;49073;42.352;23.808;2023-06-10T08:13:41;94330.03;;;19.22;82.38
62978;BME280;49073;42.352;23.808;2023-06-10T08:16:43;94328.84;;;19.23;80.61
62978;BME280;49073;42.352;23.808;2023-06-10T08:19:43;94331.06;;;19.28;79.30
62978;BME280;49073;42.352;23.808;2023-06-10T08:22:44;94333.84;;;19.25;82.22
62978;BME280;49073;42.352;23.808;2023-06-10T08:25:45;94337.88;;;19.16;83.03
62978;BME280;49073;42.352;23.808;2023-06-10T08:28:46;94343.81;;;19.08;84.07
62978;BME280;49073;42.352;23.808;2023-06-10T08:31:46;94346.84;;;18.89;86.16
62978;BME280;49073;42.352;23.808;2023-06-10T08:34:48;94352.06;;;19.00;87.46
62978;BME280;49073;42.352;23.808;2023-06-10T08:37:49;94341.75;;;19.15;88.37
62978;BME280;49073;42.352;23.808;2023-06-10T08:40:54;94340.91;;;19.18;88.19
62978;BME280;49073;42.352;23.808;2023-06-10T08:50:13;94333.34;;;19.30;87.95
62978;BME280;49073;42.352;23.808;2023-06-10T08:53:18;94327.16;;;19.29;88.95
62978;BME280;49073;42.352;23.808;2023-06-10T08:56:19;94321.28;;;19.34;91.55
62978;BME280;49073;42.352;23.808;2023-06-10T08:59:24;94312.53;;;19.47;93.38
62978;BME280;49073;42.352;23.808;2023-06-10T09:02:27;94309.81;;;19.47;84.06
62978;BME280;49073;42.352;23.808;2023-06-10T09:05:28;94315.94;;;19.68;85.90
62978;BME280;49073;42.352;23.808;2023-06-10T09:08:29;94316.09;;;19.77;89.37
62978;BME280;49073;42.352;23.808;2023-06-10T09:11:31;94304.03;;;19.82;87.12
62978;BME280;49073;42.352;23.808;2023-06-10T09:14:32;94301.56;;;19.87;86.87
62978;BME280;49073;42.352;23.808;2023-06-10T09:17:32;94295.75;;;19.89;83.83
62978;BME280;49073;42.352;23.808;2023-06-10T09:20:33;94297.72;;;20.05;83.34
62978;BME280;49073;42.352;23.808;2023-06-10T09:23:35;94295.72;;;20.39;83.86
62978;BME280;49073;42.352;23.808;2023-06-10T09:26:37;94284.59;;;20.79;81.04
62978;BME280;49073;42.352;23.808;2023-06-10T09:32:49;94293.41;;;20.96;80.40
62978;BME280;49073;42.352;23.808;2023-06-10T09:35:50;94289.25;;;21.21;78.55
62978;BME280;49073;42.352;23.808;2023-06-10T09:38:51;94282.91;;;20.98;75.11
62978;BME280;49073;42.352;23.808;2023-06-10T09:41:51;94286.00;;;21.26;79.68
62978;BME280;49073;42.352;23.808;2023-06-10T09:44:52;94279.38;;;21.14;72.31
62978;BME280;49073;42.352;23.808;2023-06-10T09:47:53;94272.53;;;21.10;70.23
62978;BME280;49073;42.352;23.808;2023-06-10T09:50:54;94271.47;;;21.46;70.84
62978;BME280;49073;42.352;23.808;2023-06-10T09:53:54;94273.72;;;21.47;70.87
62978;BME280;49073;42.352;23.808;2023-06-10T09:56:55;94269.19;;;21.44;66.19
62978;BME280;49073;42.352;23.808;2023-06-10T09:59:57;94263.97;;;21.50;67.93
62978;BME280;49073;42.352;23.808;2023-06-10T10:02:58;94258.47;;;21.41;70.12
62978;BME280;49073;42.352;23.808;2023-06-10T10:05:59;94256.06;;;21.56;70.24
62978;BME280;49073;42.352;23.808;2023-06-10T10:09:03;94256.94;;;21.53;66.53
62978;BME280;49073;42.352;23.808;2023-06-10T10:12:14;94253.34;;;21.82;68.13
62978;BME280;49073;42.352;23.808;2023-06-10T10:15:17;94253.09;;;22.02;64.24
62978;BME280;49073;42.352;23.808;2023-06-10T10:18:21;94248.94;;;22.10;65.64
62978;BME280;49073;42.352;23.808;2023-06-10T10:21:34;94251.81;;;21.80;67.63
62978;BME280;49073;42.352;23.808;2023-06-10T10:24:59;94248.38;;;21.80;63.50
62978;BME280;49073;42.352;23.808;2023-06-10T10:28:10;94251.31;;;22.08;60.96
62978;BME280;49073;42.352;23.808;2023-06-10T10:31:15;94243.63;;;22.06;60.22
62978;BME280;49073;42.352;23.808;2023-06-10T10:34:21;94243.97;;;22.31;62.55
62978;BME280;49073;42.352;23.808;2023-06-10T10:37:22;94236.97;;;22.43;61.15
62978;BME280;49073;42.352;23.808;2023-06-10T10:40:24;94233.88;;;22.31;58.80
62978;BME280;49073;42.352;23.808;2023-06-10T10:43:26;94224.38;;;22.71;62.67
62978;BME280;49073;42.352;23.808;2023-06-10T10:46:29;94231.53;;;23.09;63.44
62978;BME280;49073;42.352;23.808;2023-06-10T10:49:30;94214.31;;;23.13;58.83
62978;BME280;49073;42.352;23.808;2023-06-10T10:56:07;94210.44;;;23.23;60.30
62978;BME280;49073;42.352;23.808;2023-06-10T10:59:08;94201.28;;;23.30;59.63
62978;BME280;49073;42.352;23.808;2023-06-10T11:02:09;94203.94;;;23.71;57.58
62978;BME280;49073;42.352;23.808;2023-06-10T11:05:12;94203.03;;;23.64;58.70
62978;BME280;49073;42.352;23.808;2023-06-10T11:11:49;94196.41;;;23.84;60.91
62978;BME280;49073;42.352;23.808;2023-06-10T11:14:56;94198.19;;;23.68;55.87
62978;BME280;49073;42.352;23.808;2023-06-10T11:18:11;94193.50;;;23.78;57.76
62978;BME280;49073;42.352;23.808;2023-06-10T11:21:12;94197.63;;;24.11;58.56
62978;BME280;49073;42.352;23.808;2023-06-10T11:24:13;94193.06;;;23.80;54.15
62978;BME280;49073;42.352;23.808;2023-06-10T11:27:17;94183.88;;;23.96;55.74
62978;BME280;49073;42.352;23.808;2023-06-10T11:30:20;94181.28;;;23.74;55.10
62978;BME280;49073;42.352;23.808;2023-06-10T11:33:21;94186.88;;;23.98;53.53
62978;BME280;49073;42.352;23.808;2023-06-10T11:36:22;94174.81;;;24.18;55.01
62978;BME280;49073;42.352;23.808;2023-06-10T11:39:23;94174.50;;;24.16;51.10
62978;BME280;49073;42.352;23.808;2023-06-10T11:42:24;94171.31;;;24.08;51.98
62978;BME280;49073;42.352;23.808;2023-06-10T11:45:25;94171.91;;;23.93;51.94
62978;BME280;49073;42.352;23.808;2023-06-10T11:48:26;94170.84;;;23.81;51.94
62978;BME280;49073;42.352;23.808;2023-06-10T11:51:35;94165.56;;;24.15;51.96
62978;BME280;49073;42.352;23.808;2023-06-10T11:54:37;94154.50;;;24.56;51.86
62978;BME280;49073;42.352;23.808;2023-06-10T11:57:38;94164.28;;;24.81;51.86
62978;BME280;49073;42.352;23.808;2023-06-10T12:00:46;94159.97;;;24.47;51.42
62978;BME280;49073;42.352;23.808;2023-06-10T12:03:47;94158.78;;;24.01;51.07
62978;BME280;49073;42.352;23.808;2023-06-10T12:06:49;94159.81;;;23.85;52.83
62978;BME280;49073;42.352;23.808;2023-06-10T12:09:59;94157.94;;;23.54;55.23
62978;BME280;49073;42.352;23.808;2023-06-10T12:13:00;94150.84;;;23.47;58.73
62978;BME280;49073;42.352;23.808;2023-06-10T12:16:08;94163.22;;;23.30;62.57
62978;BME280;49073;42.352;23.808;2023-06-10T12:19:10;94165.31;;;22.94;61.77
62978;BME280;49073;42.352;23.808;2023-06-10T12:22:14;94160.47;;;22.89;59.72
62978;BME280;49073;42.352;23.808;2023-06-10T12:25:14;94153.22;;;22.95;62.13
62978;BME280;49073;42.352;23.808;2023-06-10T12:28:15;94167.47;;;22.99;59.67
62978;BME280;49073;42.352;23.808;2023-06-10T12:31:16;94156.75;;;23.05;61.41
62978;BME280;49073;42.352;23.808;2023-06-10T12:34:16;94157.25;;;23.22;62.36
62978;BME280;49073;42.352;23.808;2023-06-10T12:37:17;94154.81;;;23.15;61.32
62978;BME280;49073;42.352;23.808;2023-06-10T12:40:17;94150.25;;;23.43;59.88
62978;BME280;49073;42.352;23.808;2023-06-10T12:43:22;94141.19;;;23.56;63.65
62978;BME280;49073;42.352;23.808;2023-06-10T12:46:23;94145.53;;;23.25;62.76
62978;BME280;49073;42.352;23.808;2023-06-10T12:49:24;94143.06;;;23.18;64.16
62978;BME280;49073;42.352;23.808;2023-06-10T12:52:26;94143.03;;;23.08;62.14
62978;BME280;49073;42.352;23.808;2023-06-10T12:55:27;94140.78;;;23.16;63.52
62978;BME280;49073;42.352;23.808;2023-06-10T12:58:28;94137.75;;;23.74;63.35
62978;BME280;49073;42.352;23.808;2023-06-10T13:01:29;94138.78;;;24.32;61.97
62978;BME280;49073;42.352;23.808;2023-06-10T13:04:31;94135.63;;;24.34;59.71
62978;BME280;49073;42.352;23.808;2023-06-10T13:07:32;94142.88;;;24.00;60.76
62978;BME280;49073;42.352;23.808;2023-06-10T13:10:33;94138.50;;;24.21;57.43
62978;BME280;49073;42.352;23.808;2023-06-10T13:13:37;94135.03;;;24.02;58.12
62978;BME280;49073;42.352;23.808;2023-06-10T13:16:38;94142.72;;;23.75;59.68
62978;BME280;49073;42.352;23.808;2023-06-10T13:19:39;94133.22;;;23.61;56.53
62978;BME280;49073;42.352;23.808;2023-06-10T13:22:39;94135.28;;;23.38;60.43
62978;BME280;49073;42.352;23.808;2023-06-10T13:25:40;94139.44;;;23.21;60.97
62978;BME280;49073;42.352;23.808;2023-06-10T13:28:40;94136.53;;;23.06;59.98
62978;BME280;49073;42.352;23.808;2023-06-10T13:31:42;94139.59;;;22.76;60.05
62978;BME280;49073;42.352;23.808;2023-06-10T13:34:43;94135.84;;;22.51;61.61
62978;BME280;49073;42.352;23.808;2023-06-10T13:37:43;94135.47;;;22.40;63.33
62978;BME280;49073;42.352;23.808;2023-06-10T13:40:44;94130.22;;;22.23;63.58
62978;BME280;49073;42.352;23.808;2023-06-10T13:43:46;94137.94;;;22.25;64.88
62978;BME280;49073;42.352;23.808;2023-06-10T13:46:46;94127.81;;;22.26;65.50
62978;BME280;49073;42.352;23.808;2023-06-10T13:49:47;94124.88;;;22.11;65.82
62978;BME280;49073;42.352;23.808;2023-06-10T13:52:47;94124.47;;;22.21;66.76
62978;BME280;49073;42.352;23.808;2023-06-10T13:55:48;94131.63;;;22.28;67.42
62978;BME280;49073;42.352;23.808;2023-06-10T13:58:48;94136.63;;;22.61;65.27
62978;BME280;49073;42.352;23.808;2023-06-10T14:01:49;94132.69;;;22.94;62.39
62978;BME280;49073;42.352;23.808;2023-06-10T14:04:50;94129.66;;;22.83;59.03
62978;BME280;49073;42.352;23.808;2023-06-10T14:07:50;94125.84;;;23.12;59.99
62978;BME280;49073;42.352;23.808;2023-06-10T14:10:51;94130.50;;;23.11;61.33
62978;BME280;49073;42.352;23.808;2023-06-10T14:13:52;94131.41;;;23.08;61.41
62978;BME280;49073;42.352;23.808;2023-06-10T14:16:52;94132.22;;;22.86;61.58
62978;BME280;49073;42.352;23.808;2023-06-10T14:19:53;94132.19;;;22.45;62.52
62978;BME280;49073;42.352;23.808;2023-06-10T14:22:53;94133.84;;;22.74;64.98
62978;BME280;49073;42.352;23.808;2023-06-10T14:25:54;94131.31;;;22.80;63.40
62978;BME280;49073;42.352;23.808;2023-06-10T14:28:55;94135.06;;;22.83;64.15
62978;BME280;49073;42.352;23.808;2023-06-10T14:31:56;94131.34;;;22.89;64.89
62978;BME280;49073;42.352;23.808;2023-06-10T14:34:56;94140.19;;;22.80;62.76
62978;BME280;49073;42.352;23.808;2023-06-10T14:37:57;94139.53;;;22.67;64.02
62978;BME280;49073;42.352;23.808;2023-06-10T14:40:57;94140.28;;;22.67;64.80
62978;BME280;49073;42.352;23.808;2023-06-10T14:43:58;94146.69;;;22.74;64.81
62978;BME280;49073;42.352;23.808;2023-06-10T14:46:59;94141.72;;;22.81;65.49
62978;BME280;49073;42.352;23.808;2023-06-10T14:49:59;94145.31;;;22.78;64.16
62978;BME280;49073;42.352;23.808;2023-06-10T14:53:00;94147.34;;;22.87;64.53
62978;BME280;49073;42.352;23.808;2023-06-10T14:56:01;94144.00;;;22.83;62.69
62978;BME280;49073;42.352;23.808;2023-06-10T14:59:01;94142.34;;;22.86;62.62
62978;BME280;49073;42.352;23.808;2023-06-10T15:02:02;94140.81;;;22.85;63.10
62978;BME280;49073;42.352;23.808;2023-06-10T15:05:02;94145.31;;;22.78;62.18
62978;BME280;49073;42.352;23.808;2023-06-10T15:08:04;94145.00;;;22.76;63.10
62978;BME280;49073;42.352;23.808;2023-06-10T15:11:05;94149.47;;;22.61;65.06
62978;BME280;49073;42.352;23.808;2023-06-10T15:14:06;94138.72;;;22.35;65.62
62978;BME280;49073;42.352;23.808;2023-06-10T15:17:07;94136.97;;;22.41;65.40
62978;BME280;49073;42.352;23.808;2023-06-10T15:20:09;94137.63;;;22.45;66.05
62978;BME280;49073;42.352;23.808;2023-06-10T15:23:09;94140.91;;;22.40;65.12
62978;BME280;49073;42.352;23.808;2023-06-10T15:26:10;94139.13;;;22.24;64.47
62978;BME280;49073;42.352;23.808;2023-06-10T15:29:11;94143.78;;;22.01;65.50
62978;BME280;49073;42.352;23.808;2023-06-10T15:32:11;94146.03;;;21.80;64.87
62978;BME280;49073;42.352;23.808;2023-06-10T15:35:12;94151.63;;;21.64;64.51
62978;BME280;49073;42.352;23.808;2023-06-10T15:38:12;94149.13;;;21.57;64.73
62978;BME280;49073;42.352;23.808;2023-06-10T15:41:13;94154.44;;;21.47;65.07
62978;BME280;49073;42.352;23.808;2023-06-10T15:44:14;94156.97;;;21.42;64.35
62978;BME280;49073;42.352;23.808;2023-06-10T15:47:14;94162.84;;;21.27;62.23
62978;BME280;49073;42.352;23.808;2023-06-10T15:50:15;94175.97;;;21.03;63.01
62978;BME280;49073;42.352;23.808;2023-06-10T15:53:17;94179.44;;;21.03;61.97
62978;BME280;49073;42.352;23.808;2023-06-10T15:56:18;94176.03;;;20.73;63.14
62978;BME280;49073;42.352;23.808;2023-06-10T15:59:18;94165.31;;;20.70;63.65